Flight Track Log - Related Links

Times and Time Zones

All times are in EDT time to prevent confusion due to time zone crossing. See the SLI131 flight status page for this flight to view local times or setup timezone preferences in your user account.

Time Position Orientation Groundspeed Altitude Reporting Facility
EDT Latitude Longitude Course Direction KTS MPH feet Rate Location/Type
Mon 05:48:15 PM 20.9720 -101.4470 124° Southeast  Level Estimated
Mon 05:49:15 PM 20.8863 -101.3119 124° Southeast  Level Estimated
Mon 05:50:15 PM 20.8005 -101.1768 124° Southeast  Level Estimated
Mon 05:51:15 PM 20.7145 -101.0420 124° Southeast  Level Estimated
Mon 05:52:15 PM 20.6285 -100.9073 124° Southeast  Level Estimated
Mon 05:53:15 PM 20.5423 -100.7727 124° Southeast  Level Estimated
Mon 05:54:15 PM 20.4561 -100.6383 124° Southeast  Level Estimated
Mon 05:55:15 PM 20.3697 -100.5041 124° Southeast  Level Estimated
Mon 05:56:15 PM 20.2833 -100.3699 125° Southeast  Level Estimated
Mon 05:57:15 PM 20.1967 -100.2360 125° Southeast  Level Estimated
Mon 05:58:15 PM 20.1100 -100.1022 125° Southeast  Level Estimated
Mon 05:59:15 PM 20.0233 -99.9685 125° Southeast  Level Estimated
Mon 06:00:15 PM 19.9364 -99.8350 125° Southeast  Level Estimated
Mon 06:01:15 PM 19.8494 -99.7017 125° Southeast  Level Estimated
Mon 06:02:15 PM 19.7624 -99.5684 125° Southeast  Level Estimated
Mon 06:03:15 PM 19.6752 -99.4354 125° Southeast  Level Estimated
Mon 06:04:15 PM 19.5880 -99.3024 125° Southeast  Level Estimated
Mon 06:05:15 PM 19.5006 -99.1697 125° Southeast  Level Estimated
Mon 06:06:15 PM 19.4132 -99.0370 305° West  Level Estimated
Mon 06:07:15 PM 19.5006 -99.1697 125° Southeast  Level Estimated
Mon 06:08:15 PM 19.4132 -99.0370 305° West  Level Estimated
Mon 06:09:15 PM 19.5006 -99.1697 125° Southeast  Level Estimated
Mon 06:10:15 PM 19.4132 -99.0370 305° West  Level Estimated
Mon 06:11:15 PM 19.5006 -99.1697 125° Southeast  Level Estimated
Mon 06:12:15 PM 19.4132 -99.0370 305° West  Level Estimated
Mon 06:13:15 PM 19.5006 -99.1697 125° Southeast  Level Estimated
Mon 06:14:15 PM 19.4132 -99.0370 305° West  Level Estimated
Mon 06:15:15 PM 19.5006 -99.1697 125° Southeast  Level Estimated
Mon 06:16:15 PM 19.4132 -99.0370 305° West  Level Estimated
Mon 06:17:15 PM 19.5006 -99.1697 125° Southeast  Level Estimated
Mon 06:18:15 PM 19.4132 -99.0370 305° West  Level Estimated
Mon 06:19:15 PM 19.5006 -99.1697 125° Southeast  Level Estimated
Mon 06:20:15 PM 19.4132 -99.0370 305° West  Level Estimated
Mon 06:21:15 PM 19.5006 -99.1697 305° West  Level Estimated

Login

Don't have an account? Register now (free) for customized features, flight alerts, and more!